EGCNEGNR

Guest
Details From EGCN - Doncaster Sheffield
To EGNR - Hawarden
Flight Number -
Tags generated
Created
Modified
Stats Distance 73 nm / 135 km
Max Altitude 8,700 ft / 2,652 m
Waypoints 3
Social Downloads 0
Likes 0
Share VATSIM

Download

Looking for another format? Having issues loading an existing format? Contact us
Advertisement - Login to hide

Notes

Basic altitude profile: - Ascent Rate: 2500ft/min - Ascent Speed: 160kts - Cruise Altitude: 35000ft - Cruise Speed: 420kts - Descent Rate: 1500ft/min - Descent Speed: 250kts Options: - Use NATs: yes - Use PACOTS: yes - Use low airways: yes - Use high airways: yes

Route

EGCN EVSON EGNR

ID Type Via Altitude Latitude Longitude Leg Dist Tot Dist Heading (true) Name
O EGCN APT - 0 ft / 0 m 53.47465˚ -1.00447˚ - 0 nm - Doncaster Sheffield
EVSON FIX - 8,700 ft / 2,652 m 53.35750˚ -1.66361˚ 24 nm 24 nm 254° / 253° -
O EGNR APT - 0 ft / 0 m 53.17813˚ -2.97766˚ 48 nm 73 nm 258° / 257° Hawarden

Altitude Profile

Advertisement - Login to hide

EGCN

Details ICAO EGCN (DSA)
Name Doncaster Sheffield
Region United Kingdom
Timezone Europe/London (UTC+1.0)
Stats Elevation 55 ft / 17 m (AMSL)
Location 53.474649° -1.004474°
Runways 1
Magnetic Variation 0.928° W

METAR

EGCN 261750Z 04009KT CAVOK 19/11 Q1023

Decode

TAF

TAF EGCN 261655Z 2618/2718 06007KT 9999 FEW045 PROB30 2623/2706 4000 BR BKN004

Decode

Departure Runways

ID Width Length Bearing (true) Bearing (mag) Surface Threshold Offset Overrun Length
02 197 ft / 60 m 8,975 ft / 2,736 m 17.62° 18.55° Asphalt 486 ft / 148 m 13 ft / 4 m
20 197 ft / 60 m 8,975 ft / 2,736 m 197.63° 198.56° Asphalt 0 ft / 0 m 0 ft / 0 m

EGNR

Details ICAO EGNR (CEG)
Name Hawarden
Region United Kingdom
Timezone Europe/London (UTC+1.0)
Stats Elevation 45 ft / 14 m (AMSL)
Location 53.178130° -2.977664°
Runways 1
Magnetic Variation 1.629° W

METAR

EGNR 261750Z 07012KT 9999 FEW045 22/07 Q1021

Decode

TAF

Not found

Destination Runways

ID Width Length Bearing (true) Bearing (mag) Surface Threshold Offset Overrun Length
05 148 ft / 45 m 6,680 ft / 2,036 m 40.93° 42.56° Asphalt 984 ft / 300 m 0 ft / 0 m
23 148 ft / 45 m 6,680 ft / 2,036 m 220.94° 222.57° Asphalt 984 ft / 300 m 0 ft / 0 m

Approach Navaids

Runway Type Ident Frequency Range Bearing (true) Bearing (mag) Slope Elevation
05 Localiser IHWD 110.35 MHz 18 nm / 33 km 34.27° 35.90° - 45 ft / 14 m (AMSL)
05 Glidescope IHWD 110.35 MHz 10 nm / 19 km 40.94° 42.57° 3.50° 42 ft / 13 m (AMSL)
05 DME IHWD 110.35 MHz 18 nm / 33 km - - - 45 ft / 14 m (AMSL)
23 Localiser IHDN 110.35 MHz 18 nm / 33 km 220.89° 222.52° - 32 ft / 10 m (AMSL)
23 Glidescope IHDN 110.35 MHz 10 nm / 19 km 220.94° 222.57° 3.00° 17 ft / 5 m (AMSL)
23 DME IHDN 110.35 MHz 18 nm / 33 km - - - 17 ft / 5 m (AMSL)

Popular Alternatives